Time;durP1;ratioP1;P1;durP2;ratioP2;P2;SDS_P1;SDS_P2;PMS_P1;PMS_P2;Temp;Humidity;BMP_temperature;BMP_pressure;BME280_temperature;BME280_humidity;BME280_pressure;Samples;Min_cycle;Max_cycle;Signal;HPM_P1;HPM_P2
2022/07/12 00:02:04;;;;;;;8.68;3.60;;;;;;;15.10;70.56;101446.38;5008504;28;20422;-56
2022/07/12 00:04:31;;;;;;;6.50;3.40;;;;;;;15.07;70.79;101454.53;4984709;28;20054;-54
2022/07/12 00:06:58;;;;;;;8.63;3.42;;;;;;;15.03;70.69;101459.19;5014065;28;20049;-57
2022/07/12 00:09:25;;;;;;;7.07;3.47;;;;;;;15.00;71.03;101456.75;5009592;28;20128;-58
2022/07/12 00:11:52;;;;;;;8.45;3.88;;;;;;;14.97;71.36;101458.72;5011065;28;20049;-57
2022/07/12 00:14:20;;;;;;;9.05;3.70;;;;;;;14.94;71.38;101457.13;5009279;28;20065;-58
2022/07/12 00:16:47;;;;;;;8.40;3.33;;;;;;;14.93;72.60;101460.72;5011465;28;20065;-56
2022/07/12 00:19:14;;;;;;;5.30;3.20;;;;;;;14.87;71.85;101456.69;5014448;28;20061;-58
2022/07/12 00:21:41;;;;;;;8.10;4.10;;;;;;;14.84;72.91;101458.66;5023672;28;20063;-59
2022/07/12 00:24:09;;;;;;;8.10;3.60;;;;;;;14.80;73.38;101459.81;5011941;28;20069;-53
2022/07/12 00:26:36;;;;;;;10.10;3.08;;;;;;;14.76;72.83;101456.50;5008164;28;20083;-58
2022/07/12 00:29:03;;;;;;;7.55;3.10;;;;;;;14.74;73.04;101461.06;5000900;28;20050;-54
2022/07/12 00:31:30;;;;;;;6.65;2.78;;;;;;;14.71;72.98;101458.59;5009925;28;20054;-59
2022/07/12 00:33:58;;;;;;;6.60;2.67;;;;;;;14.69;73.10;101463.13;5005490;28;20052;-57
2022/07/12 00:36:25;;;;;;;12.65;3.30;;;;;;;14.65;73.22;101473.06;4994696;28;20084;-57
2022/07/12 00:38:52;;;;;;;7.45;2.63;;;;;;;14.62;73.16;101467.97;5015622;28;20046;-56
2022/07/12 00:41:19;;;;;;;10.05;2.78;;;;;;;14.59;73.66;101473.47;5023069;28;20050;-59
2022/07/12 00:43:46;;;;;;;9.98;2.75;;;;;;;14.57;73.29;101471.84;5020406;28;20050;-58
2022/07/12 00:46:15;;;;;;;5.05;2.85;;;;;;;14.54;73.11;101470.22;5008345;28;20046;-55
2022/07/12 00:48:42;;;;;;;6.93;2.20;;;;;;;14.52;73.55;101473.94;5000547;28;20351;-56
2022/07/12 00:51:10;;;;;;;10.73;2.58;;;;;;;14.48;73.92;101473.25;5013564;28;20053;-59
2022/07/12 00:53:37;;;;;;;6.22;2.20;;;;;;;14.44;74.01;101471.72;5013697;28;20050;-54
2022/07/12 00:56:05;;;;;;;6.38;2.50;;;;;;;14.40;74.45;101467.56;5024992;28;20053;-55
2022/07/12 00:58:32;;;;;;;6.00;2.95;;;;;;;14.37;74.48;101471.25;5023626;28;20502;-56
2022/07/12 01:00:59;;;;;;;6.78;2.40;;;;;;;14.36;75.04;101472.22;5018058;28;20065;-57
2022/07/12 01:03:27;;;;;;;6.60;2.38;;;;;;;14.33;74.50;101468.88;5017371;28;20179;-56
2022/07/12 01:05:55;;;;;;;6.47;2.28;;;;;;;14.29;74.73;101470.88;4993541;28;20125;-56
2022/07/12 01:08:23;;;;;;;5.90;2.20;;;;;;;14.27;74.74;101472.75;5031525;22;20125;-83
2022/07/12 01:10:50;;;;;;;4.53;2.25;;;;;;;14.22;74.65;101472.16;5060668;28;20068;-83
2022/07/12 01:13:18;;;;;;;6.22;2.30;;;;;;;14.19;75.28;101475.03;5074138;28;20032;-84
2022/07/12 01:15:47;;;;;;;5.78;2.10;;;;;;;14.16;74.96;101473.41;5069537;28;20022;-83
2022/07/12 01:18:15;;;;;;;4.03;1.65;;;;;;;14.14;75.33;101471.81;5040517;28;20046;-82
2022/07/12 01:20:44;;;;;;;4.97;1.90;;;;;;;14.11;74.58;101480.78;5066913;28;20079;-83
2022/07/12 01:23:12;;;;;;;3.70;1.80;;;;;;;14.09;74.38;101469.41;5065697;28;20053;-83
2022/07/12 01:25:39;;;;;;;3.95;1.50;;;;;;;14.06;74.60;101469.63;5033646;28;20083;-83
2022/07/12 01:28:07;;;;;;;3.13;1.67;;;;;;;14.04;75.39;101474.13;5064079;28;20041;-83
2022/07/12 01:30:34;;;;;;;2.92;1.65;;;;;;;14.02;75.63;101481.31;5063644;28;20060;-84
2022/07/12 01:33:01;;;;;;;5.80;1.67;;;;;;;13.99;76.45;101481.50;5065454;28;20488;-84
2022/07/12 01:35:29;;;;;;;4.20;1.58;;;;;;;13.96;76.83;101475.53;5051529;28;20133;-83
2022/07/12 01:37:56;;;;;;;4.15;1.85;;;;;;;13.90;77.43;101472.31;5049040;28;20084;-84
2022/07/12 01:40:24;;;;;;;3.88;1.50;;;;;;;13.88;77.26;101476.00;5075698;28;20552;-82
2022/07/12 01:42:51;;;;;;;6.40;1.90;;;;;;;13.85;77.00;101476.19;5063215;28;20059;-83
2022/07/12 01:45:19;;;;;;;3.55;1.67;;;;;;;13.84;77.37;101477.13;5069732;28;20033;-83
2022/07/12 01:47:47;;;;;;;3.80;1.85;;;;;;;13.81;76.80;101477.31;5057937;28;20045;-82
2022/07/12 01:50:15;;;;;;;5.88;2.13;;;;;;;13.79;77.42;101482.69;5076658;28;20037;-84
2022/07/12 01:52:42;;;;;;;4.45;1.92;;;;;;;13.76;77.68;101477.56;5071009;28;20047;-82
2022/07/12 01:55:10;;;;;;;3.30;1.58;;;;;;;13.74;77.38;101475.97;5078123;28;20017;-83
2022/07/12 01:57:41;;;;;;;4.95;1.80;;;;;;;13.70;77.27;101474.44;5086653;28;20040;-83
2022/07/12 02:00:09;;;;;;;5.63;1.30;;;;;;;13.67;77.17;101476.31;5062838;28;20535;-84
2022/07/12 02:02:39;;;;;;;4.60;1.63;;;;;;;13.66;77.03;101481.69;5073079;28;20084;-84
2022/07/12 02:05:09;;;;;;;1.80;1.23;;;;;;;13.64;77.30;101483.56;5030611;28;20076;-85
2022/07/12 02:07:36;;;;;;;3.67;1.50;;;;;;;13.62;77.62;101486.31;5068590;28;20041;-83
2022/07/12 02:10:08;;;;;;;5.70;1.60;;;;;;;13.59;78.68;101483.84;5049807;28;20136;-84
2022/07/12 02:12:36;;;;;;;4.95;1.90;;;;;;;13.56;78.71;101488.47;5046196;28;20088;-83
2022/07/12 02:15:08;;;;;;;3.30;1.65;;;;;;;13.53;78.72;101494.78;5058651;28;20045;-83
2022/07/12 02:17:35;;;;;;;9.45;1.70;;;;;;;13.49;78.80;101487.13;5062134;28;20052;-83
2022/07/12 02:20:03;;;;;;;9.05;2.45;;;;;;;13.45;78.44;101489.06;5050310;28;20037;-84
2022/07/12 02:22:30;;;;;;;5.25;1.42;;;;;;;13.45;78.89;101485.56;5049447;28;20081;-83
2022/07/12 02:24:58;;;;;;;6.22;1.77;;;;;;;13.40;79.25;101488.50;5043405;28;20048;-82
2022/07/12 02:27:26;;;;;;;6.40;1.80;;;;;;;13.39;79.30;101500.88;5070451;28;20055;-82
2022/07/12 02:29:54;;;;;;;6.00;1.88;;;;;;;13.35;79.03;101498.47;5077265;28;20040;-84
2022/07/12 02:32:21;;;;;;;2.88;1.73;;;;;;;13.34;79.11;101497.63;5080496;28;20065;-85
2022/07/12 02:34:48;;;;;;;5.80;2.13;;;;;;;13.30;79.52;101497.88;5083764;28;20029;-83
2022/07/12 02:37:16;;;;;;;4.50;1.40;;;;;;;13.28;79.28;101497.09;5072822;28;20099;-81
2022/07/12 02:39:43;;;;;;;6.80;1.95;;;;;;;13.25;79.71;101492.00;5088416;28;20048;-84
2022/07/12 02:42:10;;;;;;;3.55;1.40;;;;;;;13.21;80.36;101491.28;5064230;28;20116;-82
2022/07/12 02:44:37;;;;;;;4.03;1.65;;;;;;;13.17;79.85;101493.25;5062736;28;20040;-83
2022/07/12 02:47:05;;;;;;;3.95;1.65;;;;;;;13.17;80.34;101493.25;5079028;28;20039;-84
2022/07/12 02:49:33;;;;;;;7.60;1.60;;;;;;;13.15;80.72;101487.22;5040703;28;20120;-86
2022/07/12 02:52:00;;;;;;;4.30;1.70;;;;;;;13.11;80.43;101485.66;5076346;28;20066;-84
2022/07/12 02:54:27;;;;;;;3.17;1.40;;;;;;;13.10;80.29;101483.97;5068776;28;20057;-83
2022/07/12 02:56:55;;;;;;;7.47;1.88;;;;;;;13.09;80.01;101486.69;5042434;28;20544;-83
2022/07/12 02:59:22;;;;;;;5.05;1.73;;;;;;;13.08;80.94;101491.13;5053132;28;20060;-83
2022/07/12 03:01:49;;;;;;;2.40;1.70;;;;;;;13.06;81.16;101497.44;5058373;28;20049;-83
2022/07/12 03:04:43;;;;;;;4.93;1.40;;;;;;;13.05;81.30;101501.84;5036094;28;20052;-82
2022/07/12 03:07:10;;;;;;;3.35;2.10;;;;;;;13.04;81.48;101504.59;5045083;28;20043;-83
2022/07/12 03:09:37;;;;;;;5.25;1.83;;;;;;;13.04;80.52;101505.44;5043495;28;20113;-83
2022/07/12 03:12:07;;;;;;;6.53;1.80;;;;;;;13.06;81.61;101511.50;5031799;28;20066;-83
2022/07/12 03:14:35;;;;;;;6.63;2.08;;;;;;;13.06;81.18;101511.50;5060113;28;20049;-83
2022/07/12 03:17:05;;;;;;;4.18;1.88;;;;;;;13.05;80.54;101507.13;5065411;28;20060;-82
2022/07/12 03:19:32;;;;;;;8.52;2.20;;;;;;;13.07;80.63;101507.94;5063389;28;20153;-82
2022/07/12 03:22:00;;;;;;;4.57;1.77;;;;;;;13.08;80.81;101512.25;5048218;28;20408;-83
2022/07/12 03:24:27;;;;;;;6.25;1.92;;;;;;;13.11;80.69;101524.47;5064251;28;20059;-82
2022/07/12 03:26:54;;;;;;;8.95;2.33;;;;;;;13.15;81.30;101518.09;5065112;22;20058;-56
2022/07/12 03:29:22;;;;;;;4.38;2.20;;;;;;;13.18;80.79;101516.09;5009937;28;20057;-58
2022/07/12 03:31:49;;;;;;;3.90;2.45;;;;;;;13.23;80.47;101517.66;5002649;28;20065;-57
2022/07/12 03:34:16;;;;;;;4.32;1.90;;;;;;;13.27;79.98;101521.84;5009862;28;20038;-60
2022/07/12 03:36:45;;;;;;;6.15;2.33;;;;;;;13.29;79.82;101520.00;5008181;28;20061;-58
2022/07/12 03:39:12;;;;;;;6.13;2.22;;;;;;;13.32;79.19;101520.66;5007328;28;20384;-59
2022/07/12 03:41:39;;;;;;;4.30;1.50;;;;;;;13.34;79.39;101521.44;5007912;28;20510;-57
2022/07/12 03:44:07;;;;;;;5.75;2.10;;;;;;;13.38;79.09;101527.41;5010423;28;20049;-58
2022/07/12 03:46:34;;;;;;;5.80;1.95;;;;;;;13.38;79.38;101517.69;5005560;28;20054;-57
2022/07/12 03:49:01;;;;;;;4.50;1.80;;;;;;;13.44;78.77;101524.41;4996922;28;20426;-57
2022/07/12 03:51:28;;;;;;;6.22;1.98;;;;;;;13.46;78.70;101538.38;5000088;28;20054;-56
2022/07/12 03:53:56;;;;;;;5.05;1.92;;;;;;;13.48;78.70;101535.66;5005882;28;20054;-55
2022/07/12 03:59:08;;;;;;;4.22;1.52;;;;;;;13.56;78.65;101534.31;5008084;28;20056;-55
2022/07/12 04:01:35;;;;;;;4.30;1.85;;;;;;;13.61;78.35;101548.13;5007748;28;20789;-54
2022/07/12 04:04:03;;;;;;;3.83;1.75;;;;;;;13.64;78.00;101542.66;5009159;28;20045;-56
2022/07/12 04:06:30;;;;;;;4.18;1.73;;;;;;;13.67;78.06;101547.75;5008783;28;20049;-56
2022/07/12 04:08:57;;;;;;;10.30;1.83;;;;;;;13.75;77.52;101543.81;5002576;28;20053;-57
2022/07/12 04:11:24;;;;;;;4.53;1.50;;;;;;;13.79;77.48;101545.34;5008095;28;20046;-57
2022/07/12 04:13:51;;;;;;;3.95;1.67;;;;;;;13.84;76.87;101538.84;5009190;28;20128;-57
2022/07/12 04:16:18;;;;;;;6.82;1.67;;;;;;;13.87;77.24;101537.84;5004705;28;20046;-57
2022/07/12 04:18:46;;;;;;;3.50;1.40;;;;;;;13.92;77.15;101541.91;5008767;28;20062;-56
2022/07/12 04:21:13;;;;;;;3.28;1.52;;;;;;;13.95;76.13;101543.50;5007051;28;20052;-53
2022/07/12 04:23:40;;;;;;;4.63;1.42;;;;;;;14.02;76.07;101546.66;5009035;28;20065;-57
2022/07/12 04:26:07;;;;;;;5.82;1.70;;;;;;;14.08;75.55;101535.72;5006756;28;20054;-56
2022/07/12 04:28:35;;;;;;;5.35;1.85;;;;;;;14.11;75.10;101535.53;5008700;28;20052;-57
2022/07/12 04:31:02;;;;;;;5.43;1.67;;;;;;;14.14;74.65;101533.56;5006224;28;20401;-57
2022/07/12 04:33:30;;;;;;;5.35;1.50;;;;;;;14.18;73.95;101542.16;5007816;28;20061;-56
2022/07/12 04:35:57;;;;;;;5.35;1.67;;;;;;;14.21;73.69;101541.13;5015345;28;20506;-56
2022/07/12 04:38:24;;;;;;;5.22;1.15;;;;;;;14.25;72.75;101543.50;5008818;28;20076;-54
2022/07/12 04:40:51;;;;;;;4.90;1.80;;;;;;;14.33;73.03;101535.97;5002937;28;20411;-58
2022/07/12 04:43:18;;;;;;;5.55;1.83;;;;;;;14.38;72.32;101530.38;4992288;28;20060;-56
2022/07/12 04:45:45;;;;;;;5.85;1.70;;;;;;;14.44;72.35;101533.50;5006861;28;20067;-57
2022/07/12 04:48:13;;;;;;;3.17;1.52;;;;;;;14.51;71.99;101538.47;5005644;28;20410;-59
2022/07/12 04:50:40;;;;;;;5.07;1.73;;;;;;;14.57;71.39;101536.28;5005164;28;20042;-53
2022/07/12 04:53:07;;;;;;;6.18;1.63;;;;;;;14.61;70.45;101542.25;5009087;28;20410;-55
2022/07/12 04:55:34;;;;;;;2.92;1.20;;;;;;;14.68;69.57;101533.00;5001786;28;20062;-56
2022/07/12 04:58:01;;;;;;;4.15;1.90;;;;;;;14.75;68.67;101538.75;5007843;28;20054;-57
2022/07/12 05:00:29;;;;;;;5.07;1.40;;;;;;;14.81;68.11;101544.53;5004201;28;20045;-56
2022/07/12 05:02:56;;;;;;;8.65;1.80;;;;;;;14.90;68.48;101545.75;5008477;28;20141;-55
2022/07/12 05:05:23;;;;;;;3.58;1.42;;;;;;;14.95;67.56;101549.00;4999275;28;20050;-56
2022/07/12 05:07:50;;;;;;;4.65;1.67;;;;;;;15.05;66.97;101547.47;5008913;28;20053;-59
2022/07/12 05:10:17;;;;;;;2.45;1.27;;;;;;;15.06;66.10;101551.81;4983797;28;20039;-54
2022/07/12 05:12:44;;;;;;;5.65;1.73;;;;;;;15.13;66.08;101552.25;5006602;28;20506;-55
2022/07/12 05:15:15;;;;;;;4.47;1.33;;;;;;;15.26;66.02;101561.13;5009998;28;20058;-54
2022/07/12 05:17:49;;;;;;;5.00;1.40;;;;;;;15.35;64.84;101552.59;5010438;28;20451;-56
2022/07/12 05:20:16;;;;;;;8.30;1.77;;;;;;;15.43;63.69;101545.00;5009815;28;20073;-54
2022/07/12 05:22:43;;;;;;;8.30;1.60;;;;;;;15.55;64.04;101559.28;5011739;28;20081;-53
2022/07/12 05:25:11;;;;;;;4.43;1.75;;;;;;;15.65;64.14;101559.56;5009628;28;20417;-56
2022/07/12 05:27:38;;;;;;;9.35;1.75;;;;;;;15.73;63.58;101561.72;5004072;28;20126;-56
2022/07/12 05:30:05;;;;;;;4.43;1.45;;;;;;;15.81;62.37;101559.44;5010297;28;20038;-56
2022/07/12 05:32:33;;;;;;;3.28;1.33;;;;;;;15.82;60.78;101561.13;5011842;28;20061;-55
2022/07/12 05:35:00;;;;;;;3.45;1.30;;;;;;;15.90;60.46;101564.13;5007522;28;20054;-58
2022/07/12 05:37:27;;;;;;;3.67;1.27;;;;;;;15.99;59.71;101568.81;5011685;28;20539;-57
2022/07/12 05:39:54;;;;;;;4.00;1.30;;;;;;;16.10;59.91;101566.28;5009693;28;20042;-56
2022/07/12 05:42:21;;;;;;;5.88;1.58;;;;;;;16.22;58.11;101561.97;5011168;28;20113;-59
2022/07/12 05:44:48;;;;;;;10.35;1.90;;;;;;;16.34;58.75;101568.22;5006206;28;20525;-58
2022/07/12 05:47:15;;;;;;;14.68;2.13;;;;;;;16.39;57.00;101564.34;5010719;28;20049;-60
2022/07/12 05:49:43;;;;;;;6.65;1.63;;;;;;;16.55;56.88;101566.78;5010279;28;20054;-57
2022/07/12 05:54:56;;;;;;;5.50;1.38;;;;;;;16.76;54.63;101563.63;5001914;28;20506;-58
2022/07/12 05:57:23;;;;;;;3.85;1.25;;;;;;;16.86;54.21;101568.19;5012151;28;20046;-56
2022/07/12 05:59:50;;;;;;;5.30;1.05;;;;;;;16.94;54.57;101572.97;5011390;28;20533;-59
2022/07/12 06:02:17;;;;;;;7.40;1.45;;;;;;;17.01;54.30;101576.88;5003358;28;20045;-55
2022/07/12 06:04:45;;;;;;;3.55;1.27;;;;;;;17.07;54.28;101579.13;5011754;28;20057;-59
2022/07/12 06:07:17;;;;;;;21.45;3.10;;;;;;;17.17;53.40;101585.47;5013112;28;20429;-57
2022/07/12 06:09:44;;;;;;;4.35;1.25;;;;;;;17.19;53.75;101586.22;5005840;28;20058;-58
2022/07/12 06:12:12;;;;;;;15.80;1.83;;;;;;;17.25;53.30;101573.44;4991570;28;20062;-57
2022/07/12 06:14:39;;;;;;;7.32;1.25;;;;;;;17.31;53.41;101578.31;5002061;28;20364;-55
2022/07/12 06:17:07;;;;;;;5.18;1.35;;;;;;;17.47;53.41;101581.56;4999554;28;20050;-59
2022/07/12 06:19:34;;;;;;;6.30;1.92;;;;;;;17.52;53.14;101584.75;4991220;28;20054;-59
2022/07/12 06:22:01;;;;;;;7.65;1.88;;;;;;;17.60;53.22;101585.03;4999272;28;20484;-57
2022/07/12 06:24:28;;;;;;;4.82;2.00;;;;;;;17.71;53.13;101587.75;5010765;28;20058;-54
2022/07/12 06:26:56;;;;;;;5.00;1.60;;;;;;;17.81;53.07;101582.63;5006272;28;20077;-58
2022/07/12 06:29:23;;;;;;;5.72;1.80;;;;;;;17.79;53.25;101592.56;4992448;28;20058;-56
2022/07/12 06:31:51;;;;;;;7.80;1.77;;;;;;;17.78;53.87;101582.84;4990861;28;20058;-57
2022/07/12 06:34:18;;;;;;;12.35;2.42;;;;;;;18.02;53.80;101592.66;4994543;28;20160;-56
2022/07/12 06:36:45;;;;;;;13.48;3.00;;;;;;;18.05;53.49;101593.25;4986147;28;20057;-58
2022/07/12 06:39:12;;;;;;;11.05;2.20;;;;;;;18.12;53.17;101591.84;5013160;28;20060;-57
2022/07/12 06:41:39;;;;;;;16.42;2.60;;;;;;;18.18;53.40;101593.19;4991970;28;20094;-58
2022/07/12 06:44:07;;;;;;;8.23;1.85;;;;;;;18.37;52.63;101590.84;5012608;28;20049;-56
2022/07/12 06:46:34;;;;;;;4.70;1.13;;;;;;;18.45;52.40;101588.41;5010086;28;20050;-53
2022/07/12 06:49:01;;;;;;;4.10;1.10;;;;;;;18.62;52.50;101579.13;5010819;28;20065;-54
2022/07/12 06:51:29;;;;;;;9.18;1.30;;;;;;;18.70;51.80;101568.75;4990099;28;20440;-57
2022/07/12 06:53:56;;;;;;;8.20;1.15;;;;;;;18.68;51.35;101573.31;4991516;28;20072;-55
2022/07/12 06:56:23;;;;;;;7.80;2.15;;;;;;;18.67;51.87;101576.09;5005739;28;20058;-56
2022/07/12 06:58:50;;;;;;;6.00;1.60;;;;;;;18.77;51.69;101568.25;5006570;28;20049;-56
2022/07/12 07:01:17;;;;;;;18.25;2.92;;;;;;;18.75;51.65;101570.22;5008733;28;20375;-54
2022/07/12 07:03:44;;;;;;;7.72;1.40;;;;;;;18.85;51.84;101571.19;5010525;28;20050;-60
2022/07/12 07:06:12;;;;;;;14.40;3.67;;;;;;;18.88;51.32;101577.13;5007752;28;20110;-55
2022/07/12 07:08:39;;;;;;;11.15;2.10;;;;;;;18.95;50.97;101569.47;5036994;22;20049;-56
2022/07/12 07:11:06;;;;;;;6.50;1.58;;;;;;;18.94;51.28;101573.97;5050241;28;20276;-53
2022/07/12 07:13:33;;;;;;;10.10;1.27;;;;;;;19.09;51.17;101576.38;5061022;28;20057;-57
2022/07/12 07:16:09;;;;;;;12.57;3.67;;;;;;;19.16;50.77;101569.59;5048498;28;20061;-55
2022/07/12 07:18:36;;;;;;;6.22;1.50;;;;;;;19.25;50.76;101589.38;5061903;28;20056;-53
2022/07/12 07:21:03;;;;;;;4.45;1.00;;;;;;;19.37;50.03;101575.03;5055077;28;20059;-55
2022/07/12 07:23:30;;;;;;;5.35;1.42;;;;;;;19.48;50.50;101575.84;5053957;28;20048;-57
2022/07/12 07:25:57;;;;;;;10.93;3.17;;;;;;;19.36;50.23;101576.84;5048287;28;20052;-54
2022/07/12 07:28:24;;;;;;;9.10;2.58;;;;;;;19.52;50.30;101573.78;5057747;28;20528;-56
2022/07/12 07:31:12;;;;;;;9.98;1.30;;;;;;;19.74;49.84;101564.88;5047070;28;20041;-59
2022/07/12 07:33:39;;;;;;;9.93;1.35;;;;;;;19.64;49.64;101572.81;5059974;28;20057;-58
2022/07/12 07:36:06;;;;;;;7.97;1.48;;;;;;;19.77;49.67;101575.31;5049708;28;20540;-57
2022/07/12 07:38:33;;;;;;;6.18;1.10;;;;;;;19.88;48.74;101566.41;5072576;28;20082;-56
2022/07/12 07:41:00;;;;;;;5.00;1.00;;;;;;;19.95;48.32;101570.28;5053882;28;20054;-58
2022/07/12 07:43:27;;;;;;;7.30;1.40;;;;;;;20.04;48.58;101572.19;5061185;28;20063;-57
2022/07/12 07:45:55;;;;;;;7.07;1.58;;;;;;;20.17;48.54;101561.28;5057524;28;20053;-58
2022/07/12 07:48:22;;;;;;;5.53;1.30;;;;;;;20.26;48.02;101565.00;5057998;28;20041;-58
2022/07/12 07:50:51;;;;;;;4.03;1.38;;;;;;;20.31;47.63;101557.44;5053850;28;20503;-55
2022/07/12 07:53:19;;;;;;;6.55;1.65;;;;;;;20.43;47.62;101572.44;5058598;28;20052;-57
2022/07/12 07:55:46;;;;;;;9.48;1.88;;;;;;;20.53;46.97;101561.81;5054196;28;20083;-57
2022/07/12 07:58:16;;;;;;;3.03;1.17;;;;;;;20.64;46.85;101564.44;5053794;28;20053;-59
2022/07/12 08:00:43;;;;;;;16.60;2.80;;;;;;;20.69;46.96;101567.56;5056028;28;20056;-56
2022/07/12 08:03:10;;;;;;;8.18;2.55;;;;;;;20.82;46.86;101560.16;5050937;28;20067;-53
2022/07/12 08:05:38;;;;;;;7.63;1.90;;;;;;;20.95;46.82;101566.13;5057002;28;20466;-57
2022/07/12 08:08:05;;;;;;;7.28;1.50;;;;;;;21.03;46.92;101564.59;5050156;28;20064;-55
2022/07/12 08:10:33;;;;;;;16.30;4.40;;;;;;;20.98;46.95;101562.31;5056097;28;20065;-55
2022/07/12 08:13:00;;;;;;;9.93;3.72;;;;;;;21.02;46.35;101560.22;5055641;28;20044;-59
2022/07/12 08:15:27;;;;;;;12.63;3.35;;;;;;;21.15;46.35;101563.50;5056702;28;20571;-60
2022/07/12 08:17:55;;;;;;;25.73;2.60;;;;;;;21.29;45.45;101564.97;5049361;28;20061;-58
2022/07/12 08:20:24;;;;;;;7.88;1.38;;;;;;;21.30;44.95;101562.16;5053548;28;20048;-58
2022/07/12 08:23:11;;;;;;;11.57;1.33;;;;;;;21.25;44.60;101572.41;5057344;28;20037;-57
2022/07/12 08:25:38;;;;;;;6.43;1.48;;;;;;;21.41;44.36;101563.91;5053603;28;20056;-58
2022/07/12 08:28:05;;;;;;;4.80;1.10;;;;;;;21.43;44.74;101561.91;5050465;28;20045;-58
2022/07/12 08:30:33;;;;;;;4.30;1.30;;;;;;;21.34;44.83;101565.41;5058162;28;20052;-57
2022/07/12 08:33:00;;;;;;;6.18;1.80;;;;;;;21.43;44.67;101559.25;5050236;28;20047;-57
2022/07/12 08:35:27;;;;;;;9.73;1.50;;;;;;;21.56;43.87;101557.16;5050303;28;20444;-57
2022/07/12 08:37:55;;;;;;;2.53;0.90;;;;;;;21.52;43.70;101555.72;5052938;28;20037;-59
2022/07/12 08:40:23;;;;;;;4.18;1.05;;;;;;;21.51;43.46;101553.19;5053441;28;20098;-56
2022/07/12 08:42:50;;;;;;;12.95;1.55;;;;;;;21.48;43.22;101559.69;5050919;28;20045;-58
2022/07/12 08:45:17;;;;;;;8.07;1.35;;;;;;;21.69;43.03;101555.03;5057975;28;20049;-58
2022/07/12 08:47:44;;;;;;;6.15;1.17;;;;;;;21.89;42.43;101558.59;5056081;28;20056;-62
2022/07/12 08:50:17;;;;;;;6.18;1.10;;;;;;;22.03;42.18;101560.00;5070923;28;20067;-58
2022/07/12 08:52:49;;;;;;;6.38;1.38;;;;;;;21.92;41.14;101565.50;5071589;28;20049;-60
2022/07/12 08:55:28;;;;;;;5.32;0.88;;;;;;;21.87;41.12;101559.72;5067218;28;20045;-59
2022/07/12 08:57:57;;;;;;;3.63;0.95;;;;;;;21.99;40.67;101554.06;5071299;28;20063;-58
2022/07/12 09:00:25;;;;;;;3.65;0.77;;;;;;;22.05;40.16;101565.22;5056798;28;20055;-57
2022/07/12 09:02:57;;;;;;;4.93;0.95;;;;;;;22.13;40.65;101550.13;5064013;28;20060;-59
2022/07/12 09:05:35;;;;;;;4.72;0.88;;;;;;;22.33;41.32;101556.31;5051140;28;20045;-57
2022/07/12 09:08:09;;;;;;;1.45;0.60;;;;;;;22.52;40.77;101550.06;5049476;28;20106;-58
2022/07/12 09:10:48;;;;;;;9.20;1.05;;;;;;;22.67;40.90;101555.81;5056794;28;20049;-56
2022/07/12 09:13:19;;;;;;;8.90;1.08;;;;;;;22.68;40.38;101552.13;5056117;28;20140;-58
2022/07/12 09:15:49;;;;;;;3.53;0.60;;;;;;;22.60;41.49;101560.06;5055924;28;20048;-58
2022/07/12 09:18:18;;;;;;;4.65;0.68;;;;;;;22.64;40.64;101548.88;5057364;28;20133;-58
2022/07/12 09:20:52;;;;;;;5.28;0.90;;;;;;;22.58;41.42;101545.94;5051230;28;20096;-56
2022/07/12 09:23:19;;;;;;;3.65;0.90;;;;;;;22.66;41.02;101552.28;5044730;28;20049;-58
2022/07/12 09:25:48;;;;;;;3.50;1.05;;;;;;;22.94;40.38;101549.66;5031133;28;20140;-56
2022/07/12 09:28:16;;;;;;;3.75;0.80;;;;;;;22.95;40.01;101544.13;5033311;28;20506;-57
2022/07/12 09:30:53;;;;;;;6.20;0.98;;;;;;;22.80;40.79;101547.44;5032028;28;20061;-59
2022/07/12 09:36:07;;;;;;;4.10;0.93;;;;;;;23.11;41.05;101545.34;5037691;28;20045;-59
2022/07/12 09:38:54;;;;;;;7.47;1.30;;;;;;;23.35;40.48;101547.44;5050014;28;20548;-59
2022/07/12 09:41:21;;;;;;;5.50;1.05;;;;;;;23.57;40.23;101538.09;5051362;28;20140;-58
2022/07/12 09:43:49;;;;;;;7.20;1.10;;;;;;;23.54;39.81;101536.56;5053510;28;20049;-58
2022/07/12 09:46:17;;;;;;;5.63;1.15;;;;;;;23.54;39.19;101550.00;5055627;28;20407;-54
2022/07/12 09:48:46;;;;;;;5.10;1.00;;;;;;;23.46;39.43;101541.84;5032932;28;20064;-57
2022/07/12 09:51:15;;;;;;;13.57;2.20;;;;;;;23.70;38.75;101541.28;5032671;28;20065;-59
2022/07/12 09:53:49;;;;;;;5.03;0.90;;;;;;;23.80;38.52;101554.66;5035228;28;20045;-58
2022/07/12 09:56:17;;;;;;;6.85;1.70;;;;;;;23.63;39.91;101545.56;5054373;28;20045;-57
2022/07/12 09:58:52;;;;;;;5.90;1.45;;;;;;;23.79;39.88;101547.59;5054144;28;20068;-59
2022/07/12 10:01:20;;;;;;;3.80;1.10;;;;;;;23.97;38.29;101543.03;5057136;28;20057;-59
2022/07/12 10:03:48;;;;;;;7.95;2.42;;;;;;;23.73;38.13;101546.34;5050108;28;20053;-58
2022/07/12 10:06:25;;;;;;;9.73;2.45;;;;;;;23.69;39.38;101542.31;5058345;28;20068;-55
2022/07/12 10:09:01;;;;;;;4.55;0.80;;;;;;;23.85;38.09;101542.44;5046985;28;20053;-57
2022/07/12 10:11:29;;;;;;;19.60;5.97;;;;;;;23.65;38.99;101548.97;5051647;28;20041;-57
2022/07/12 10:14:16;;;;;;;4.97;1.02;;;;;;;23.82;37.37;101547.25;5051778;28;20056;-57
2022/07/12 10:16:44;;;;;;;6.75;1.40;;;;;;;23.86;37.59;101541.41;5050281;28;20432;-58
2022/07/12 10:19:25;;;;;;;7.85;2.08;;;;;;;23.77;37.22;101541.50;5051637;28;20048;-58
2022/07/12 10:21:54;;;;;;;2.65;0.70;;;;;;;23.79;36.80;101550.28;5048726;28;20057;-57
2022/07/12 10:24:33;;;;;;;4.07;0.80;;;;;;;23.80;36.38;101541.22;5057890;28;20044;-57
2022/07/12 10:27:21;;;;;;;5.10;0.70;;;;;;;23.45;37.18;101541.00;5053223;28;20049;-54
2022/07/12 10:29:53;;;;;;;8.05;0.90;;;;;;;23.68;38.30;101546.81;5044860;28;20409;-55
2022/07/12 10:32:25;;;;;;;5.00;1.40;;;;;;;23.85;37.39;101546.97;5047581;28;20063;-55
2022/07/12 10:35:05;;;;;;;5.05;0.70;;;;;;;23.97;35.84;101540.34;5054400;28;20083;-57
2022/07/12 10:37:33;;;;;;;2.55;0.70;;;;;;;23.98;36.05;101548.25;5056022;28;20549;-54
2022/07/12 10:40:20;;;;;;;1.85;0.80;;;;;;;24.13;35.58;101537.78;5049770;28;20095;-58
2022/07/12 10:43:07;;;;;;;2.50;0.73;;;;;;;24.44;35.54;101538.19;5056565;28;20044;-56
2022/07/12 10:45:38;;;;;;;2.88;0.70;;;;;;;24.59;35.66;101543.84;5053955;28;20099;-58
2022/07/12 10:48:07;;;;;;;3.60;1.00;;;;;;;24.69;35.47;101539.19;5055003;28;20060;-56
2022/07/12 10:50:40;;;;;;;5.82;0.88;;;;;;;24.58;35.80;101528.69;5050849;28;20049;-58
2022/07/12 10:53:29;;;;;;;3.03;1.05;;;;;;;24.78;35.92;101532.00;5056668;28;20045;-58
2022/07/12 10:56:21;;;;;;;2.25;0.95;;;;;;;24.92;36.16;101530.53;5054644;28;20045;-57
2022/07/12 10:58:58;;;;;;;2.95;0.90;;;;;;;25.36;35.46;101535.78;5055314;28;20049;-57
2022/07/12 11:01:29;;;;;;;3.63;0.95;;;;;;;25.79;35.53;101531.13;5056423;28;20056;-58
2022/07/12 11:04:03;;;;;;;3.15;0.82;;;;;;;26.07;35.04;101539.72;5056538;28;20048;-56
2022/07/12 11:06:30;;;;;;;1.40;0.80;;;;;;;26.21;33.25;101550.72;5053323;28;20057;-57
2022/07/12 11:09:11;;;;;;;2.25;1.00;;;;;;;26.11;33.55;101541.91;5053618;28;20056;-56
2022/07/12 11:11:48;;;;;;;5.97;1.10;;;;;;;26.25;33.49;101535.84;5054156;28;20061;-58
2022/07/12 11:14:23;;;;;;;2.95;1.00;;;;;;;26.17;32.76;101543.13;5045756;28;20037;-58
2022/07/12 11:16:54;;;;;;;1.45;0.77;;;;;;;25.92;34.04;101540.41;5053975;28;20132;-58
2022/07/12 11:19:25;;;;;;;5.97;1.10;;;;;;;26.09;33.87;101540.41;5055375;28;20059;-57
2022/07/12 11:21:57;;;;;;;6.85;0.73;;;;;;;26.37;34.11;101539.03;5053399;28;20120;-55
2022/07/12 11:24:28;;;;;;;1.98;1.08;;;;;;;26.69;34.25;101543.53;5052930;28;20041;-58
2022/07/12 11:26:55;;;;;;;1.30;0.80;;;;;;;26.57;32.80;101541.38;5052553;28;20053;-58
2022/07/12 11:29:25;;;;;;;5.28;0.80;;;;;;;26.61;32.83;101548.94;5053812;28;20045;-57
2022/07/12 11:32:05;;;;;;;2.85;0.80;;;;;;;26.52;32.86;101544.59;5057717;28;20057;-57
2022/07/12 11:34:38;;;;;;;1.98;0.90;;;;;;;26.44;32.96;101541.94;5056735;28;20056;-57
2022/07/12 11:37:05;;;;;;;5.20;1.00;;;;;;;26.66;33.02;101535.78;5051632;28;20049;-58
2022/07/12 11:39:41;;;;;;;1.67;0.80;;;;;;;26.87;33.28;101532.50;5053618;28;20051;-58
2022/07/12 11:42:10;;;;;;;4.60;0.88;;;;;;;26.70;32.42;101529.03;5050977;28;20053;-57